If you wish to contribute or participate in the discussions about articles you are invited to join SKYbrary as a registered user

 Actions

Phu Bai International Airport

From SKYbrary Wiki

VVPB /
Revision as of 08:49, 19 August 2019 by Integration.Manager (talk | contribs) (Created page with "{{Airport |Airport_Name=Phu Bai International Airport |ICAO_Region=APAC |ICAO_Territory=VV |IATA Code=HUI |Elevation=49ft |Location=Phu Bai |Main city served=Hue |ISO_Subdivis...")
(diff) ← Older revision | Latest revision (diff) | Newer revision → (diff)
Airport
ICAO: VVPB – IATA: HUI
Summary
Name Phu Bai International Airport
Region Asia and Pacific
Territory Vietnam VN.gif
Location Phu Bai, Hue
Serving Hue
Elevation 14.935 m
49 ft14.935 m
Coordinates 16° 24' 6.01" N, 107° 42' 10.01" E
Runways
Designator Length Width Surface ROPS
9/27 2675 m8,776.247 ft
40 m131.234 ft
ASP /


METAR
Observation VVPB 182200Z 28004KT 5000 BR SCT015 FEW017CB BKN050 25/25 Q1010 NOSIG
Station Hue
Date/Time 18 September 2019 22:00:00
Wind direction 280°
Wind speed 04 kts
Lowest cloud amount scattered clouds
Temperature 25°C
Dew point 25°C
Humidity 100%
QNH 1010 hPa
Weather condition n/a

Phu Bai International Airport is located just south of the central city of Huế, former capital of Vietnam.

Climatology

Tropical monsoon climate (Köppen climate classification Am)

Maps

Terrain

Loading map...

Airport Layout

Loading map...


Accidents & Serious Incidents at or in vicinity of VVPB

None on SKYbrary